createdAt,value
2023-02-02T00:02:20.851Z,99922.00
2023-02-02T00:04:48.617Z,99921.00
2023-02-02T00:07:16.611Z,99919.00
2023-02-02T00:09:44.383Z,99914.00
2023-02-02T00:12:12.285Z,99927.00
2023-02-02T00:14:40.341Z,99911.00
2023-02-02T00:17:11.001Z,99898.00
2023-02-02T00:19:39.088Z,99904.00
2023-02-02T00:22:07.052Z,99903.00
2023-02-02T00:24:35.262Z,99904.00
2023-02-02T00:27:03.329Z,99917.00
2023-02-02T00:29:32.050Z,99906.00
2023-02-02T00:32:00.052Z,99910.00
2023-02-02T00:34:28.090Z,99919.00
2023-02-02T00:36:55.978Z,99919.00
2023-02-02T00:39:26.425Z,99910.00
2023-02-02T00:41:56.184Z,99914.00
2023-02-02T00:44:42.430Z,99922.00
2023-02-02T00:47:10.416Z,99922.00
2023-02-02T00:49:38.384Z,99921.00
2023-02-02T00:52:06.936Z,99915.00
2023-02-02T00:54:34.677Z,99906.00
2023-02-02T00:57:03.696Z,99910.00
2023-02-02T00:59:32.345Z,99926.00
2023-02-02T01:02:02.264Z,99920.00
2023-02-02T01:04:30.543Z,99919.00
2023-02-02T01:06:58.446Z,99927.00
2023-02-02T01:09:26.343Z,99928.00
2023-02-02T01:11:54.327Z,99924.00
2023-02-02T01:14:22.862Z,99918.00
2023-02-02T01:16:50.877Z,99924.00
2023-02-02T01:19:19.068Z,99914.00
2023-02-02T01:21:46.865Z,99921.00
2023-02-02T01:24:14.812Z,99935.00
2023-02-02T01:26:42.946Z,99911.00
2023-02-02T01:29:10.853Z,99915.00
2023-02-02T01:31:38.871Z,99930.00
2023-02-02T01:34:06.687Z,99926.00
2023-02-02T01:36:34.579Z,99930.00
2023-02-02T01:39:02.498Z,99938.00
2023-02-02T01:41:30.602Z,99945.00
2023-02-02T01:44:07.089Z,99953.00
2023-02-02T01:46:36.563Z,99950.00
2023-02-02T01:49:15.417Z,99934.00
2023-02-02T01:51:47.856Z,99929.00
2023-02-02T01:54:44.174Z,99939.00
2023-02-02T01:57:22.586Z,99945.00
2023-02-02T01:59:51.103Z,99935.00
2023-02-02T02:02:19.304Z,99960.00
2023-02-02T02:04:47.720Z,99956.00
2023-02-02T02:07:15.726Z,99977.00
2023-02-02T02:09:43.747Z,99971.00
2023-02-02T02:12:15.804Z,99968.00
2023-02-02T02:15:05.177Z,99969.00
2023-02-02T02:17:38.985Z,99968.00
2023-02-02T02:20:53.914Z,99976.00
2023-02-02T02:24:03.571Z,99987.00
2023-02-02T02:26:50.020Z,99988.00
2023-02-02T02:29:55.605Z,99985.00
2023-02-02T02:32:37.919Z,99990.00
2023-02-02T02:39:11.847Z,99998.00
2023-02-02T02:41:44.520Z,100006.00
2023-02-02T02:44:15.882Z,100016.00
2023-02-02T02:46:44.576Z,100014.00
2023-02-02T02:49:13.331Z,100013.00
2023-02-02T02:51:49.271Z,100013.00
2023-02-02T02:54:45.464Z,100016.00
2023-02-02T02:57:34.588Z,100021.00
2023-02-02T03:00:31.440Z,100018.00
2023-02-02T03:03:09.564Z,100019.00
2023-02-02T03:05:56.811Z,100031.00
2023-02-02T03:08:36.784Z,100034.00
2023-02-02T03:11:07.213Z,100027.00
2023-02-02T03:13:35.716Z,100027.00
2023-02-02T03:16:03.913Z,100032.00
2023-02-02T03:18:33.388Z,100036.00
2023-02-02T03:21:01.466Z,100042.00
2023-02-02T03:23:29.443Z,100033.00
2023-02-02T03:25:57.443Z,100026.00
2023-02-02T03:28:25.825Z,100026.00
2023-02-02T03:30:54.587Z,100041.00
2023-02-02T03:33:22.796Z,100054.00
2023-02-02T03:35:50.819Z,100053.00
2023-02-02T03:38:18.818Z,100046.00
2023-02-02T03:40:46.751Z,100050.00
2023-02-02T03:43:19.764Z,100056.00
2023-02-02T03:45:47.567Z,100062.00
2023-02-02T03:48:15.506Z,100064.00
2023-02-02T03:50:43.404Z,100073.00
2023-02-02T03:53:11.181Z,100078.00
2023-02-02T03:55:40.785Z,100077.00
2023-02-02T03:58:08.791Z,100079.00
2023-02-02T04:00:36.712Z,100080.00
2023-02-02T04:03:04.864Z,100081.00
2023-02-02T04:05:32.954Z,100083.00
2023-02-02T04:08:00.791Z,100089.00
2023-02-02T04:10:28.726Z,100091.00
2023-02-02T04:12:56.797Z,100102.00
2023-02-02T04:15:25.569Z,100111.00
2023-02-02T04:17:53.345Z,100106.00
2023-02-02T04:20:21.025Z,100106.00
2023-02-02T04:22:48.364Z,100109.00
2023-02-02T04:25:15.893Z,100111.00
2023-02-02T04:27:43.334Z,100122.00
2023-02-02T04:30:11.850Z,100115.00
2023-02-02T04:32:39.465Z,100122.00
2023-02-02T04:35:07.818Z,100118.00
2023-02-02T04:37:36.704Z,100127.00
2023-02-02T04:40:05.532Z,100127.00
2023-02-02T04:42:43.544Z,100120.00
2023-02-02T04:45:11.719Z,100128.00
2023-02-02T04:47:39.161Z,100130.00
2023-02-02T04:50:07.647Z,100127.00
2023-02-02T04:52:35.736Z,100141.00
2023-02-02T04:55:06.411Z,100147.00
2023-02-02T04:57:33.820Z,100148.00
2023-02-02T05:00:01.291Z,100140.00
2023-02-02T05:02:28.820Z,100142.00
2023-02-02T05:04:56.098Z,100150.00
2023-02-02T05:07:23.728Z,100146.00
2023-02-02T05:09:51.619Z,100139.00
2023-02-02T05:12:19.200Z,100150.00
2023-02-02T05:14:46.699Z,100155.00
2023-02-02T05:17:15.606Z,100153.00
2023-02-02T05:19:43.488Z,100142.00
2023-02-02T05:22:11.018Z,100154.00
2023-02-02T05:24:38.932Z,100151.00
2023-02-02T05:27:06.677Z,100150.00
2023-02-02T05:29:34.303Z,100153.00
2023-02-02T05:32:01.883Z,100151.00
2023-02-02T05:34:29.368Z,100151.00
2023-02-02T05:36:56.746Z,100162.00
2023-02-02T05:39:24.126Z,100162.00
2023-02-02T05:41:52.121Z,100163.00
2023-02-02T05:44:19.539Z,100157.00
2023-02-02T05:46:47.132Z,100163.00
2023-02-02T05:49:15.071Z,100171.00
2023-02-02T05:51:49.076Z,100173.00
2023-02-02T05:54:23.407Z,100175.00
2023-02-02T05:56:54.784Z,100176.00
2023-02-02T05:59:22.965Z,100183.00
2023-02-02T06:01:50.776Z,100183.00
2023-02-02T06:04:18.313Z,100188.00
2023-02-02T06:06:48.194Z,100194.00
2023-02-02T06:09:15.874Z,100192.00
2023-02-02T06:11:46.989Z,100200.00
2023-02-02T06:14:14.693Z,100198.00
2023-02-02T06:16:42.307Z,100204.00
2023-02-02T06:19:09.897Z,100197.00
2023-02-02T06:21:37.633Z,100196.00
2023-02-02T06:24:05.705Z,100207.00
2023-02-02T06:26:33.553Z,100214.00
2023-02-02T06:29:01.503Z,100219.00
2023-02-02T06:31:29.301Z,100219.00
2023-02-02T06:33:59.037Z,100224.00
2023-02-02T06:36:28.148Z,100229.00
2023-02-02T06:38:57.818Z,100230.00
2023-02-02T06:41:25.910Z,100225.00
2023-02-02T06:43:53.470Z,100229.00
2023-02-02T06:46:21.176Z,100226.00
2023-02-02T06:48:48.955Z,100226.00
2023-02-02T06:51:16.725Z,100235.00
2023-02-02T06:53:44.509Z,100234.00
2023-02-02T06:56:14.194Z,100238.00
2023-02-02T06:58:41.757Z,100237.00
2023-02-02T07:01:13.256Z,100240.00
2023-02-02T07:03:41.366Z,100243.00
2023-02-02T07:06:14.275Z,100243.00
2023-02-02T07:08:42.490Z,100248.00
2023-02-02T07:11:15.208Z,100248.00
2023-02-02T07:13:45.999Z,100255.00
2023-02-02T07:16:18.027Z,100260.00
2023-02-02T07:18:47.697Z,100261.00
2023-02-02T07:21:22.878Z,100265.00
2023-02-02T07:23:51.500Z,100271.00
2023-02-02T07:26:20.255Z,100271.00
2023-02-02T07:28:48.673Z,100272.00
2023-02-02T07:31:23.579Z,100274.00
2023-02-02T07:33:54.251Z,100289.00
2023-02-02T07:36:25.602Z,100295.00
2023-02-02T07:38:55.121Z,100291.00
2023-02-02T07:41:25.864Z,100291.00
2023-02-02T07:43:53.689Z,100294.00
2023-02-02T07:46:21.479Z,100308.00
2023-02-02T07:48:49.378Z,100302.00
2023-02-02T07:51:18.816Z,100316.00
2023-02-02T07:53:49.915Z,100318.00
2023-02-02T07:56:24.962Z,100315.00
2023-02-02T07:58:55.080Z,100314.00
2023-02-02T08:01:26.512Z,100316.00
2023-02-02T08:03:56.247Z,100324.00
2023-02-02T08:06:29.967Z,100324.00
2023-02-02T08:08:58.806Z,100321.00
2023-02-02T08:11:28.568Z,100325.00
2023-02-02T08:13:59.980Z,100325.00
2023-02-02T08:16:29.735Z,100333.00
2023-02-02T08:18:58.546Z,100341.00
2023-02-02T08:21:26.515Z,100342.00
2023-02-02T08:23:54.722Z,100351.00
2023-02-02T08:26:28.377Z,100362.00
2023-02-02T08:29:03.827Z,100364.00
2023-02-02T08:31:35.715Z,100358.00
2023-02-02T08:34:04.929Z,100366.00
2023-02-02T08:36:35.691Z,100368.00
2023-02-02T08:39:10.328Z,100368.00
2023-02-02T08:41:39.619Z,100379.00
2023-02-02T08:44:11.527Z,100371.00
2023-02-02T08:46:43.923Z,100368.00
2023-02-02T08:49:12.913Z,100376.00
2023-02-02T08:51:40.654Z,100382.00
2023-02-02T08:54:08.197Z,100376.00
2023-02-02T08:56:37.825Z,100391.00
2023-02-02T08:59:06.737Z,100392.00
2023-02-02T09:01:35.567Z,100387.00
2023-02-02T09:04:11.503Z,100397.00
2023-02-02T09:06:41.629Z,100404.00
2023-02-02T09:09:13.825Z,100406.00
2023-02-02T09:11:42.450Z,100403.00
2023-02-02T09:14:13.002Z,100403.00
2023-02-02T09:16:41.688Z,100398.00
2023-02-02T09:19:12.096Z,100401.00
2023-02-02T09:21:40.770Z,100408.00
2023-02-02T09:24:12.434Z,100423.00
2023-02-02T09:26:43.514Z,100424.00
2023-02-02T09:29:18.349Z,100418.00
2023-02-02T09:31:47.188Z,100424.00
2023-02-02T09:34:16.105Z,100434.00
2023-02-02T09:36:45.298Z,100439.00
2023-02-02T09:39:15.211Z,100445.00
2023-02-02T09:41:57.686Z,100447.00
2023-02-02T09:44:57.309Z,100444.00
2023-02-02T09:48:10.271Z,100451.00
2023-02-02T09:51:09.187Z,100456.00
2023-02-02T09:53:55.272Z,100452.00
2023-02-02T09:56:44.318Z,100448.00
2023-02-02T09:59:24.611Z,100455.00
2023-02-02T10:01:57.714Z,100460.00
2023-02-02T10:04:40.872Z,100464.00
2023-02-02T10:07:20.063Z,100461.00
2023-02-02T10:10:20.183Z,100459.00
2023-02-02T10:12:58.342Z,100459.00
2023-02-02T10:15:56.944Z,100465.00
2023-02-02T10:18:49.076Z,100468.00
2023-02-02T10:21:41.402Z,100471.00
2023-02-02T10:24:25.672Z,100475.00
2023-02-02T10:26:57.765Z,100472.00
2023-02-02T10:29:48.804Z,100474.00
2023-02-02T10:32:31.141Z,100483.00
2023-02-02T10:35:27.962Z,100470.00
2023-02-02T10:38:32.780Z,100479.00
2023-02-02T10:41:11.159Z,100481.00
2023-02-02T10:44:06.727Z,100486.00
2023-02-02T10:46:41.622Z,100481.00
2023-02-02T10:49:33.920Z,100483.00
2023-02-02T10:52:18.893Z,100487.00
2023-02-02T10:54:58.354Z,100484.00
2023-02-02T10:58:03.178Z,100494.00
2023-02-02T11:00:53.474Z,100489.00
2023-02-02T11:03:27.941Z,100490.00
2023-02-02T11:06:17.080Z,100481.00
2023-02-02T11:08:48.111Z,100486.00
2023-02-02T11:11:38.859Z,100491.00
2023-02-02T11:14:09.485Z,100494.00
2023-02-02T11:16:43.540Z,100495.00
2023-02-02T11:19:23.023Z,100505.00
2023-02-02T11:22:00.093Z,100499.00
2023-02-02T11:24:46.059Z,100505.00
2023-02-02T11:27:17.190Z,100512.00
2023-02-02T11:29:52.888Z,100527.00
2023-02-02T11:32:33.275Z,100519.00
2023-02-02T11:35:21.739Z,100513.00
2023-02-02T11:38:10.695Z,100517.00
2023-02-02T11:40:54.910Z,100518.00
2023-02-02T11:43:36.495Z,100531.00
2023-02-02T11:46:31.348Z,100532.00
2023-02-02T11:49:13.615Z,100531.00
2023-02-02T11:51:46.933Z,100536.00
2023-02-02T11:54:26.363Z,100553.00
2023-02-02T11:56:57.327Z,100533.00
2023-02-02T11:59:32.879Z,100532.00
2023-02-02T12:02:22.764Z,100529.00
2023-02-02T12:05:32.481Z,100528.00
2023-02-02T12:08:00.805Z,100526.00
2023-02-02T12:10:37.057Z,100523.00
2023-02-02T12:13:53.348Z,100533.00
2023-02-02T12:17:12.081Z,100535.00
2023-02-02T12:20:36.812Z,100526.00
2023-02-02T12:23:31.747Z,100534.00
2023-02-02T12:26:34.994Z,100532.00
2023-02-02T12:29:19.822Z,100535.00
2023-02-02T12:32:30.363Z,100528.00
2023-02-02T12:35:46.163Z,100528.00
2023-02-02T12:38:30.246Z,100536.00
2023-02-02T12:41:42.537Z,100537.00
2023-02-02T12:44:42.478Z,100528.00
2023-02-02T12:47:25.353Z,100541.00
2023-02-02T12:50:30.243Z,100536.00
2023-02-02T12:53:24.490Z,100533.00
2023-02-02T12:56:05.553Z,100536.00
2023-02-02T12:59:02.822Z,100538.00
2023-02-02T13:01:59.651Z,100540.00
2023-02-02T13:08:02.191Z,100551.00
2023-02-02T13:10:39.940Z,100555.00
2023-02-02T13:13:24.775Z,100543.00
2023-02-02T13:16:06.764Z,100549.00
2023-02-02T13:18:39.530Z,100551.00
2023-02-02T13:21:18.916Z,100560.00
2023-02-02T13:24:05.098Z,100565.00
2023-02-02T13:26:41.725Z,100569.00
2023-02-02T13:29:47.761Z,100568.00
2023-02-02T13:32:35.033Z,100565.00
2023-02-02T13:35:19.071Z,100572.00
2023-02-02T13:38:18.422Z,100570.00
2023-02-02T13:40:46.196Z,100575.00
2023-02-02T13:44:08.777Z,100577.00
2023-02-02T13:46:48.243Z,100578.00
2023-02-02T13:49:29.372Z,100575.00
2023-02-02T13:52:17.767Z,100586.00
2023-02-02T13:55:28.660Z,100590.00
2023-02-02T13:58:26.144Z,100593.00
2023-02-02T14:01:05.140Z,100598.00
2023-02-02T14:03:41.184Z,100590.00
2023-02-02T14:06:23.426Z,100593.00
2023-02-02T14:09:01.436Z,100606.00
2023-02-02T14:11:36.661Z,100603.00
2023-02-02T14:14:29.332Z,100607.00
2023-02-02T14:16:56.919Z,100610.00
2023-02-02T14:19:36.011Z,100617.00
2023-02-02T14:22:12.410Z,100613.00
2023-02-02T14:24:50.406Z,100614.00
2023-02-02T14:27:30.298Z,100614.00
2023-02-02T14:29:59.927Z,100621.00
2023-02-02T14:32:30.150Z,100632.00
2023-02-02T14:35:14.447Z,100629.00
2023-02-02T14:38:40.700Z,100636.00
2023-02-02T14:42:19.583Z,100637.00
2023-02-02T14:45:32.066Z,100637.00
2023-02-02T14:48:03.275Z,100648.00
2023-02-02T14:50:56.327Z,100643.00
2023-02-02T14:53:31.715Z,100652.00
2023-02-02T14:56:05.757Z,100655.00
2023-02-02T14:58:53.896Z,100658.00
2023-02-02T15:01:26.196Z,100659.00
2023-02-02T15:04:01.189Z,100658.00
2023-02-02T15:06:31.660Z,100661.00
2023-02-02T15:09:21.167Z,100673.00
2023-02-02T15:12:04.305Z,100682.00
2023-02-02T15:15:14.465Z,100678.00
2023-02-02T15:18:08.227Z,100679.00
2023-02-02T15:20:49.099Z,100693.00
2023-02-02T15:23:29.835Z,100697.00
2023-02-02T15:26:09.757Z,100703.00
2023-02-02T15:29:00.870Z,100695.00
2023-02-02T15:31:45.748Z,100700.00
2023-02-02T15:34:49.288Z,100714.00
2023-02-02T15:37:36.238Z,100721.00
2023-02-02T15:40:11.295Z,100728.00
2023-02-02T15:42:54.695Z,100732.00
2023-02-02T15:45:43.625Z,100736.00
2023-02-02T15:48:23.857Z,100740.00
2023-02-02T15:50:55.547Z,100744.00
2023-02-02T15:53:33.066Z,100751.00
2023-02-02T15:56:19.593Z,100761.00
2023-02-02T15:58:54.410Z,100758.00
2023-02-02T16:01:24.515Z,100757.00
2023-02-02T16:04:00.745Z,100766.00
2023-02-02T16:06:30.476Z,100770.00
2023-02-02T16:08:59.160Z,100768.00
2023-02-02T16:11:27.072Z,100776.00
2023-02-02T16:14:20.093Z,100784.00
2023-02-02T16:16:51.566Z,100778.00
2023-02-02T16:19:26.743Z,100785.00
2023-02-02T16:22:17.250Z,100797.00
2023-02-02T16:24:52.177Z,100791.00
2023-02-02T16:27:26.982Z,100797.00
2023-02-02T16:30:04.619Z,100809.00
2023-02-02T16:32:36.328Z,100819.00
2023-02-02T16:35:07.639Z,100822.00
2023-02-02T16:37:36.611Z,100829.00
2023-02-02T16:40:26.945Z,100832.00
2023-02-02T16:43:20.142Z,100833.00
2023-02-02T16:45:53.367Z,100835.00
2023-02-02T16:48:57.446Z,100845.00
2023-02-02T16:51:31.598Z,100848.00
2023-02-02T16:54:07.121Z,100852.00
2023-02-02T16:56:40.052Z,100854.00
2023-02-02T16:59:35.931Z,100860.00
2023-02-02T17:02:16.631Z,100866.00
2023-02-02T17:04:50.901Z,100852.00
2023-02-02T17:07:19.069Z,100856.00
2023-02-02T17:09:49.592Z,100860.00
2023-02-02T17:12:32.665Z,100864.00
2023-02-02T17:15:11.678Z,100865.00
2023-02-02T17:17:40.503Z,100864.00
2023-02-02T17:20:11.582Z,100861.00
2023-02-02T17:22:44.527Z,100855.00
2023-02-02T17:25:28.841Z,100866.00
2023-02-02T17:27:58.794Z,100863.00
2023-02-02T17:30:27.598Z,100857.00
2023-02-02T17:32:54.955Z,100862.00
2023-02-02T17:35:32.573Z,100870.00
2023-02-02T17:38:05.415Z,100864.00
2023-02-02T17:40:34.219Z,100872.00
2023-02-02T17:43:03.207Z,100871.00
2023-02-02T17:45:36.254Z,100882.00
2023-02-02T17:48:05.209Z,100890.00
2023-02-02T17:50:34.364Z,100883.00
2023-02-02T17:53:01.706Z,100876.00
2023-02-02T17:55:36.762Z,100882.00
2023-02-02T17:58:04.302Z,100883.00
2023-02-02T18:00:32.461Z,100885.00
2023-02-02T18:03:23.943Z,100886.00
2023-02-02T18:05:51.819Z,100893.00
2023-02-02T18:08:20.751Z,100890.00
2023-02-02T18:10:48.134Z,100903.00
2023-02-02T18:13:19.644Z,100889.00
2023-02-02T18:15:49.350Z,100893.00
2023-02-02T18:18:17.293Z,100891.00
2023-02-02T18:20:47.804Z,100893.00
2023-02-02T18:23:16.746Z,100900.00
2023-02-02T18:25:45.503Z,100897.00
2023-02-02T18:28:17.341Z,100895.00
2023-02-02T18:30:46.662Z,100890.00
2023-02-02T18:33:17.988Z,100890.00
2023-02-02T18:35:46.876Z,100888.00
2023-02-02T18:38:15.220Z,100876.00
2023-02-02T18:40:43.130Z,100890.00
2023-02-02T18:43:10.779Z,100882.00
2023-02-02T18:45:38.437Z,100884.00
2023-02-02T18:48:05.997Z,100874.00
2023-02-02T18:50:33.389Z,100869.00
2023-02-02T18:53:00.794Z,100870.00
2023-02-02T18:55:28.466Z,100867.00
2023-02-02T18:57:56.440Z,100858.00
2023-02-02T19:00:24.571Z,100857.00
2023-02-02T19:02:52.370Z,100857.00
2023-02-02T19:05:38.476Z,100861.00
2023-02-02T19:08:06.124Z,100861.00
2023-02-02T19:10:33.881Z,100867.00
2023-02-02T19:13:19.356Z,100874.00
2023-02-02T19:15:52.012Z,100873.00
2023-02-02T19:18:23.239Z,100870.00
2023-02-02T19:20:52.687Z,100875.00
2023-02-02T19:23:23.746Z,100868.00
2023-02-02T19:25:56.496Z,100869.00
2023-02-02T19:28:32.573Z,100872.00
2023-02-02T19:31:02.583Z,100884.00
2023-02-02T19:33:42.753Z,100882.00
2023-02-02T19:36:31.009Z,100877.00
2023-02-02T19:39:19.113Z,100878.00
2023-02-02T19:41:46.959Z,100875.00
2023-02-02T19:44:21.077Z,100877.00
2023-02-02T19:46:51.665Z,100880.00
2023-02-02T19:49:39.249Z,100877.00
2023-02-02T19:52:22.378Z,100879.00
2023-02-02T19:54:50.393Z,100880.00
2023-02-02T19:57:33.057Z,100882.00
2023-02-02T20:00:25.668Z,100888.00
2023-02-02T20:03:16.402Z,100877.00
2023-02-02T20:05:52.951Z,100886.00
2023-02-02T20:08:39.692Z,100880.00
2023-02-02T20:11:23.677Z,100878.00
2023-02-02T20:13:52.138Z,100884.00
2023-02-02T20:16:23.172Z,100876.00
2023-02-02T20:18:56.009Z,100882.00
2023-02-02T20:21:41.355Z,100882.00
2023-02-02T20:24:18.862Z,100884.00
2023-02-02T20:26:46.961Z,100874.00
2023-02-02T20:29:28.098Z,100872.00
2023-02-02T20:31:59.328Z,100873.00
2023-02-02T20:34:33.304Z,100861.00
2023-02-02T20:37:10.801Z,100859.00
2023-02-02T20:39:56.355Z,100863.00
2023-02-02T20:42:24.466Z,100849.00
2023-02-02T20:44:53.121Z,100854.00
2023-02-02T20:47:21.440Z,100852.00
2023-02-02T20:49:49.750Z,100851.00
2023-02-02T20:52:23.673Z,100843.00
2023-02-02T20:54:52.307Z,100839.00
2023-02-02T20:57:19.843Z,100837.00
2023-02-02T20:59:47.404Z,100830.00
2023-02-02T21:02:19.421Z,100827.00
2023-02-02T21:04:50.881Z,100835.00
2023-02-02T21:07:22.331Z,100829.00
2023-02-02T21:09:51.298Z,100823.00
2023-02-02T21:12:18.828Z,100819.00
2023-02-02T21:14:46.274Z,100816.00
2023-02-02T21:17:16.675Z,100814.00
2023-02-02T21:19:44.499Z,100806.00
2023-02-02T21:22:12.589Z,100805.00
2023-02-02T21:24:40.536Z,100805.00
2023-02-02T21:27:09.068Z,100799.00
2023-02-02T21:29:36.654Z,100791.00
2023-02-02T21:32:05.223Z,100798.00
2023-02-02T21:34:35.964Z,100788.00
2023-02-02T21:37:03.567Z,100788.00
2023-02-02T21:39:39.888Z,100792.00
2023-02-02T21:42:15.450Z,100787.00
2023-02-02T21:45:16.927Z,100793.00
2023-02-02T21:47:57.786Z,100780.00
2023-02-02T21:50:41.336Z,100782.00
2023-02-02T21:53:23.090Z,100770.00
2023-02-02T21:55:56.721Z,100776.00
2023-02-02T21:58:36.286Z,100781.00
2023-02-02T22:01:22.696Z,100764.00
2023-02-02T22:03:51.200Z,100768.00
2023-02-02T22:06:23.421Z,100765.00
2023-02-02T22:08:52.274Z,100757.00
2023-02-02T22:11:29.604Z,100754.00
2023-02-02T22:14:33.653Z,100757.00
2023-02-02T22:17:01.221Z,100750.00
2023-02-02T22:19:38.160Z,100753.00
2023-02-02T22:22:26.956Z,100754.00
2023-02-02T22:25:25.986Z,100746.00
2023-02-02T22:27:57.972Z,100740.00
2023-02-02T22:30:41.816Z,100745.00
2023-02-02T22:33:13.266Z,100738.00
2023-02-02T22:35:42.226Z,100742.00
2023-02-02T22:38:10.941Z,100744.00
2023-02-02T22:40:38.478Z,100745.00
2023-02-02T22:43:07.724Z,100745.00
2023-02-02T22:45:35.681Z,100743.00
2023-02-02T22:48:03.389Z,100742.00
2023-02-02T22:50:33.546Z,100733.00
2023-02-02T22:53:02.324Z,100724.00
2023-02-02T22:55:30.686Z,100724.00
2023-02-02T22:57:58.290Z,100724.00
2023-02-02T23:00:30.442Z,100718.00
2023-02-02T23:02:58.300Z,100710.00
2023-02-02T23:05:27.698Z,100710.00
2023-02-02T23:07:55.738Z,100693.00
2023-02-02T23:10:26.983Z,100695.00
2023-02-02T23:12:58.622Z,100694.00
2023-02-02T23:15:27.083Z,100687.00
2023-02-02T23:17:54.793Z,100669.00
2023-02-02T23:20:22.407Z,100669.00
2023-02-02T23:22:50.847Z,100656.00
2023-02-02T23:25:22.124Z,100653.00
2023-02-02T23:27:50.170Z,100655.00
2023-02-02T23:30:17.975Z,100644.00
2023-02-02T23:32:45.409Z,100638.00
2023-02-02T23:35:12.999Z,100641.00
2023-02-02T23:37:40.589Z,100645.00
2023-02-02T23:40:08.892Z,100644.00
2023-02-02T23:42:36.516Z,100641.00
2023-02-02T23:45:04.272Z,100637.00
2023-02-02T23:47:34.447Z,100635.00
2023-02-02T23:50:05.108Z,100625.00
2023-02-02T23:52:34.564Z,100613.00
2023-02-02T23:55:02.631Z,100608.00
2023-02-02T23:57:30.389Z,100602.00
2023-02-02T23:59:57.794Z,100590.00
